sensor_id;sensor_type;location;lat;lon;timestamp;P1;durP1;ratioP1;P2;durP2;ratioP2
3253;SDS011;1639;42.804;23.342;2023-06-01T00:01:25;6.37;;;1.70;;
3253;SDS011;1639;42.804;23.342;2023-06-01T00:03:52;4.93;;;1.43;;
3253;SDS011;1639;42.804;23.342;2023-06-01T00:06:17;6.07;;;2.37;;
3253;SDS011;1639;42.804;23.342;2023-06-01T00:08:43;4.90;;;1.50;;
3253;SDS011;1639;42.804;23.342;2023-06-01T00:11:08;7.23;;;2.10;;
3253;SDS011;1639;42.804;23.342;2023-06-01T00:13:33;8.50;;;2.00;;
3253;SDS011;1639;42.804;23.342;2023-06-01T00:15:59;7.50;;;1.77;;
3253;SDS011;1639;42.804;23.342;2023-06-01T00:18:24;4.80;;;1.30;;
3253;SDS011;1639;42.804;23.342;2023-06-01T00:20:52;6.80;;;2.37;;
3253;SDS011;1639;42.804;23.342;2023-06-01T00:23:18;5.00;;;1.63;;
3253;SDS011;1639;42.804;23.342;2023-06-01T00:25:45;6.33;;;1.93;;
3253;SDS011;1639;42.804;23.342;2023-06-01T00:28:10;5.00;;;1.60;;
3253;SDS011;1639;42.804;23.342;2023-06-01T00:30:36;4.93;;;1.63;;
3253;SDS011;1639;42.804;23.342;2023-06-01T00:33:01;5.40;;;2.40;;
3253;SDS011;1639;42.804;23.342;2023-06-01T00:35:26;5.00;;;1.37;;
3253;SDS011;1639;42.804;23.342;2023-06-01T00:37:52;4.63;;;1.20;;
3253;SDS011;1639;42.804;23.342;2023-06-01T00:40:17;5.13;;;1.70;;
3253;SDS011;1639;42.804;23.342;2023-06-01T00:42:43;5.30;;;1.90;;
3253;SDS011;1639;42.804;23.342;2023-06-01T00:45:08;4.80;;;1.40;;
3253;SDS011;1639;42.804;23.342;2023-06-01T00:47:36;5.40;;;1.80;;
3253;SDS011;1639;42.804;23.342;2023-06-01T00:50:09;5.83;;;2.87;;
3253;SDS011;1639;42.804;23.342;2023-06-01T00:52:36;5.13;;;2.23;;
3253;SDS011;1639;42.804;23.342;2023-06-01T00:55:03;5.37;;;2.20;;
3253;SDS011;1639;42.804;23.342;2023-06-01T00:57:29;4.90;;;1.50;;
3253;SDS011;1639;42.804;23.342;2023-06-01T00:59:55;5.00;;;1.60;;
3253;SDS011;1639;42.804;23.342;2023-06-01T01:02:22;4.90;;;1.70;;
3253;SDS011;1639;42.804;23.342;2023-06-01T01:04:48;6.53;;;2.07;;
3253;SDS011;1639;42.804;23.342;2023-06-01T01:10:26;6.73;;;2.13;;
3253;SDS011;1639;42.804;23.342;2023-06-01T01:13:02;4.93;;;1.67;;
3253;SDS011;1639;42.804;23.342;2023-06-01T01:18:42;5.10;;;1.63;;
3253;SDS011;1639;42.804;23.342;2023-06-01T01:21:11;5.23;;;1.70;;
3253;SDS011;1639;42.804;23.342;2023-06-01T01:29:49;12.53;;;2.57;;
3253;SDS011;1639;42.804;23.342;2023-06-01T01:32:17;5.03;;;1.40;;
3253;SDS011;1639;42.804;23.342;2023-06-01T01:34:48;6.20;;;2.50;;
3253;SDS011;1639;42.804;23.342;2023-06-01T01:37:15;5.70;;;1.80;;
3253;SDS011;1639;42.804;23.342;2023-06-01T01:39:40;5.20;;;1.90;;
3253;SDS011;1639;42.804;23.342;2023-06-01T01:42:06;5.50;;;1.90;;
3253;SDS011;1639;42.804;23.342;2023-06-01T01:44:32;4.90;;;1.43;;
3253;SDS011;1639;42.804;23.342;2023-06-01T01:49:48;5.60;;;1.40;;
3253;SDS011;1639;42.804;23.342;2023-06-01T01:52:18;7.93;;;2.33;;
3253;SDS011;1639;42.804;23.342;2023-06-01T01:54:49;4.90;;;1.47;;
3253;SDS011;1639;42.804;23.342;2023-06-01T01:57:16;6.27;;;2.13;;
3253;SDS011;1639;42.804;23.342;2023-06-01T01:59:43;5.00;;;1.50;;
3253;SDS011;1639;42.804;23.342;2023-06-01T02:02:09;5.20;;;1.93;;
3253;SDS011;1639;42.804;23.342;2023-06-01T02:04:41;6.37;;;2.67;;
3253;SDS011;1639;42.804;23.342;2023-06-01T02:07:08;5.50;;;1.90;;
3253;SDS011;1639;42.804;23.342;2023-06-01T02:09:34;5.07;;;1.80;;
3253;SDS011;1639;42.804;23.342;2023-06-01T02:12:00;4.83;;;1.37;;
3253;SDS011;1639;42.804;23.342;2023-06-01T02:14:25;5.07;;;1.50;;
3253;SDS011;1639;42.804;23.342;2023-06-01T02:16:50;4.93;;;1.37;;
3253;SDS011;1639;42.804;23.342;2023-06-01T02:19:16;5.83;;;2.17;;
3253;SDS011;1639;42.804;23.342;2023-06-01T02:21:42;10.93;;;2.07;;
3253;SDS011;1639;42.804;23.342;2023-06-01T02:24:08;5.20;;;2.10;;
3253;SDS011;1639;42.804;23.342;2023-06-01T02:26:34;5.60;;;2.33;;
3253;SDS011;1639;42.804;23.342;2023-06-01T02:28:59;5.20;;;1.70;;
3253;SDS011;1639;42.804;23.342;2023-06-01T02:31:27;5.87;;;2.00;;
3253;SDS011;1639;42.804;23.342;2023-06-01T02:33:53;5.10;;;1.83;;
3253;SDS011;1639;42.804;23.342;2023-06-01T02:36:18;4.83;;;1.20;;
3253;SDS011;1639;42.804;23.342;2023-06-01T02:38:43;4.90;;;1.30;;
3253;SDS011;1639;42.804;23.342;2023-06-01T02:41:09;5.63;;;2.10;;
3253;SDS011;1639;42.804;23.342;2023-06-01T02:43:34;5.13;;;1.67;;
3253;SDS011;1639;42.804;23.342;2023-06-01T02:46:03;5.00;;;1.50;;
3253;SDS011;1639;42.804;23.342;2023-06-01T02:48:28;4.83;;;1.20;;
3253;SDS011;1639;42.804;23.342;2023-06-01T02:50:54;5.57;;;1.50;;
3253;SDS011;1639;42.804;23.342;2023-06-01T02:53:20;4.90;;;1.20;;
3253;SDS011;1639;42.804;23.342;2023-06-01T02:55:46;5.50;;;2.00;;
3253;SDS011;1639;42.804;23.342;2023-06-01T02:58:11;5.10;;;1.30;;
3253;SDS011;1639;42.804;23.342;2023-06-01T03:00:44;5.47;;;1.63;;
3253;SDS011;1639;42.804;23.342;2023-06-01T03:03:11;5.70;;;2.33;;
3253;SDS011;1639;42.804;23.342;2023-06-01T03:05:37;5.10;;;1.60;;
3253;SDS011;1639;42.804;23.342;2023-06-01T03:08:02;4.90;;;1.30;;
3253;SDS011;1639;42.804;23.342;2023-06-01T03:10:28;4.90;;;1.40;;
3253;SDS011;1639;42.804;23.342;2023-06-01T03:12:53;5.77;;;1.50;;
3253;SDS011;1639;42.804;23.342;2023-06-01T03:15:19;4.97;;;1.63;;
3253;SDS011;1639;42.804;23.342;2023-06-01T03:17:45;5.23;;;2.20;;
3253;SDS011;1639;42.804;23.342;2023-06-01T03:20:10;4.90;;;1.23;;
3253;SDS011;1639;42.804;23.342;2023-06-01T03:22:42;5.50;;;2.00;;
3253;SDS011;1639;42.804;23.342;2023-06-01T03:25:09;6.30;;;1.50;;
3253;SDS011;1639;42.804;23.342;2023-06-01T03:27:36;7.00;;;2.00;;
3253;SDS011;1639;42.804;23.342;2023-06-01T03:30:02;5.00;;;1.53;;
3253;SDS011;1639;42.804;23.342;2023-06-01T03:32:29;4.90;;;1.20;;
3253;SDS011;1639;42.804;23.342;2023-06-01T03:34:55;4.87;;;1.33;;
3253;SDS011;1639;42.804;23.342;2023-06-01T03:37:20;5.10;;;1.47;;
3253;SDS011;1639;42.804;23.342;2023-06-01T03:39:46;5.40;;;1.60;;
3253;SDS011;1639;42.804;23.342;2023-06-01T03:42:11;11.33;;;2.23;;
3253;SDS011;1639;42.804;23.342;2023-06-01T03:44:36;4.90;;;1.33;;
3253;SDS011;1639;42.804;23.342;2023-06-01T03:47:02;5.60;;;1.60;;
3253;SDS011;1639;42.804;23.342;2023-06-01T03:49:27;5.90;;;2.00;;
3253;SDS011;1639;42.804;23.342;2023-06-01T03:51:53;5.07;;;1.80;;
3253;SDS011;1639;42.804;23.342;2023-06-01T03:54:19;5.50;;;1.97;;
3253;SDS011;1639;42.804;23.342;2023-06-01T03:56:45;4.90;;;1.40;;
3253;SDS011;1639;42.804;23.342;2023-06-01T03:59:11;7.67;;;1.90;;
3253;SDS011;1639;42.804;23.342;2023-06-01T04:01:36;5.93;;;2.67;;
3253;SDS011;1639;42.804;23.342;2023-06-01T04:04:04;5.00;;;1.70;;
3253;SDS011;1639;42.804;23.342;2023-06-01T04:06:31;5.67;;;2.00;;
3253;SDS011;1639;42.804;23.342;2023-06-01T04:09:00;5.80;;;1.87;;
3253;SDS011;1639;42.804;23.342;2023-06-01T04:11:31;5.30;;;1.90;;
3253;SDS011;1639;42.804;23.342;2023-06-01T04:14:00;5.50;;;2.37;;
3253;SDS011;1639;42.804;23.342;2023-06-01T04:16:26;5.60;;;1.90;;
3253;SDS011;1639;42.804;23.342;2023-06-01T04:18:51;5.57;;;2.43;;
3253;SDS011;1639;42.804;23.342;2023-06-01T04:21:19;6.80;;;1.90;;
3253;SDS011;1639;42.804;23.342;2023-06-01T04:23:45;5.50;;;2.17;;
3253;SDS011;1639;42.804;23.342;2023-06-01T04:26:11;5.17;;;1.40;;
3253;SDS011;1639;42.804;23.342;2023-06-01T04:28:37;5.10;;;1.67;;
3253;SDS011;1639;42.804;23.342;2023-06-01T04:31:11;4.90;;;1.40;;
3253;SDS011;1639;42.804;23.342;2023-06-01T04:33:44;5.37;;;2.07;;
3253;SDS011;1639;42.804;23.342;2023-06-01T04:36:13;6.00;;;2.80;;
3253;SDS011;1639;42.804;23.342;2023-06-01T04:38:44;6.40;;;2.27;;
3253;SDS011;1639;42.804;23.342;2023-06-01T04:41:09;5.17;;;2.20;;
3253;SDS011;1639;42.804;23.342;2023-06-01T04:43:36;14.00;;;2.33;;
3253;SDS011;1639;42.804;23.342;2023-06-01T04:46:04;7.47;;;3.57;;
3253;SDS011;1639;42.804;23.342;2023-06-01T04:48:30;5.00;;;1.73;;
3253;SDS011;1639;42.804;23.342;2023-06-01T04:50:57;8.90;;;2.20;;
3253;SDS011;1639;42.804;23.342;2023-06-01T04:53:24;5.87;;;2.67;;
3253;SDS011;1639;42.804;23.342;2023-06-01T04:55:50;8.60;;;1.97;;
3253;SDS011;1639;42.804;23.342;2023-06-01T04:58:15;11.60;;;2.70;;
3253;SDS011;1639;42.804;23.342;2023-06-01T05:00:41;5.27;;;2.10;;
3253;SDS011;1639;42.804;23.342;2023-06-01T05:03:06;6.80;;;2.23;;
3253;SDS011;1639;42.804;23.342;2023-06-01T05:05:32;5.60;;;2.37;;
3253;SDS011;1639;42.804;23.342;2023-06-01T05:07:58;6.93;;;2.70;;
3253;SDS011;1639;42.804;23.342;2023-06-01T05:10:23;7.73;;;3.10;;
3253;SDS011;1639;42.804;23.342;2023-06-01T05:12:49;8.50;;;2.17;;
3253;SDS011;1639;42.804;23.342;2023-06-01T05:15:14;5.10;;;1.40;;
3253;SDS011;1639;42.804;23.342;2023-06-01T05:17:41;5.00;;;1.80;;
3253;SDS011;1639;42.804;23.342;2023-06-01T05:20:07;6.57;;;3.03;;
3253;SDS011;1639;42.804;23.342;2023-06-01T05:22:34;10.50;;;2.33;;
3253;SDS011;1639;42.804;23.342;2023-06-01T05:25:00;7.43;;;2.90;;
3253;SDS011;1639;42.804;23.342;2023-06-01T05:27:26;9.10;;;3.37;;
3253;SDS011;1639;42.804;23.342;2023-06-01T05:29:51;8.40;;;2.83;;
3253;SDS011;1639;42.804;23.342;2023-06-01T05:32:17;5.27;;;2.10;;
3253;SDS011;1639;42.804;23.342;2023-06-01T05:34:42;5.47;;;2.27;;
3253;SDS011;1639;42.804;23.342;2023-06-01T05:37:08;6.63;;;3.13;;
3253;SDS011;1639;42.804;23.342;2023-06-01T05:39:33;5.30;;;2.67;;
3253;SDS011;1639;42.804;23.342;2023-06-01T05:53:05;8.87;;;3.47;;
3253;SDS011;1639;42.804;23.342;2023-06-01T05:55:30;7.50;;;3.93;;
3253;SDS011;1639;42.804;23.342;2023-06-01T05:57:55;5.97;;;3.03;;
3253;SDS011;1639;42.804;23.342;2023-06-01T06:00:21;6.37;;;2.40;;
3253;SDS011;1639;42.804;23.342;2023-06-01T06:02:46;7.60;;;2.27;;
3253;SDS011;1639;42.804;23.342;2023-06-01T06:05:11;7.03;;;3.17;;
3253;SDS011;1639;42.804;23.342;2023-06-01T06:07:37;8.83;;;3.03;;
3253;SDS011;1639;42.804;23.342;2023-06-01T06:10:03;6.30;;;2.83;;
3253;SDS011;1639;42.804;23.342;2023-06-01T06:12:29;6.20;;;2.73;;
3253;SDS011;1639;42.804;23.342;2023-06-01T06:14:54;6.20;;;2.80;;
3253;SDS011;1639;42.804;23.342;2023-06-01T06:17:20;5.30;;;2.40;;
3253;SDS011;1639;42.804;23.342;2023-06-01T06:19:46;6.60;;;2.97;;
3253;SDS011;1639;42.804;23.342;2023-06-01T06:22:12;7.70;;;3.70;;
3253;SDS011;1639;42.804;23.342;2023-06-01T06:24:38;5.93;;;2.90;;
3253;SDS011;1639;42.804;23.342;2023-06-01T06:27:04;7.10;;;2.90;;
3253;SDS011;1639;42.804;23.342;2023-06-01T06:29:30;7.07;;;2.27;;
3253;SDS011;1639;42.804;23.342;2023-06-01T06:31:56;6.10;;;3.07;;
3253;SDS011;1639;42.804;23.342;2023-06-01T06:34:21;7.73;;;3.90;;
3253;SDS011;1639;42.804;23.342;2023-06-01T06:36:47;6.93;;;2.60;;
3253;SDS011;1639;42.804;23.342;2023-06-01T06:39:12;7.00;;;2.80;;
3253;SDS011;1639;42.804;23.342;2023-06-01T06:41:39;8.90;;;3.43;;
3253;SDS011;1639;42.804;23.342;2023-06-01T06:44:06;8.23;;;4.07;;
3253;SDS011;1639;42.804;23.342;2023-06-01T06:46:31;6.67;;;2.97;;
3253;SDS011;1639;42.804;23.342;2023-06-01T06:48:57;5.27;;;2.33;;
3253;SDS011;1639;42.804;23.342;2023-06-01T06:51:22;5.23;;;2.30;;
3253;SDS011;1639;42.804;23.342;2023-06-01T06:53:47;6.47;;;2.60;;
3253;SDS011;1639;42.804;23.342;2023-06-01T06:56:13;7.20;;;2.30;;
3253;SDS011;1639;42.804;23.342;2023-06-01T06:58:38;6.20;;;2.63;;
3253;SDS011;1639;42.804;23.342;2023-06-01T07:01:04;5.60;;;2.70;;
3253;SDS011;1639;42.804;23.342;2023-06-01T07:03:33;5.53;;;2.33;;
3253;SDS011;1639;42.804;23.342;2023-06-01T07:05:58;9.50;;;3.07;;
3253;SDS011;1639;42.804;23.342;2023-06-01T07:08:24;13.60;;;3.63;;
3253;SDS011;1639;42.804;23.342;2023-06-01T07:10:49;7.30;;;3.07;;
3253;SDS011;1639;42.804;23.342;2023-06-01T07:13:14;5.53;;;2.63;;
3253;SDS011;1639;42.804;23.342;2023-06-01T07:15:40;5.70;;;2.80;;
3253;SDS011;1639;42.804;23.342;2023-06-01T07:18:05;6.20;;;2.23;;
3253;SDS011;1639;42.804;23.342;2023-06-01T07:20:31;8.30;;;2.40;;
3253;SDS011;1639;42.804;23.342;2023-06-01T07:22:57;5.93;;;3.50;;
3253;SDS011;1639;42.804;23.342;2023-06-01T07:25:22;5.80;;;2.33;;
3253;SDS011;1639;42.804;23.342;2023-06-01T07:27:48;6.60;;;3.00;;
3253;SDS011;1639;42.804;23.342;2023-06-01T07:30:14;5.73;;;2.53;;
3253;SDS011;1639;42.804;23.342;2023-06-01T07:32:40;6.17;;;3.00;;
3253;SDS011;1639;42.804;23.342;2023-06-01T07:35:07;5.80;;;3.30;;
3253;SDS011;1639;42.804;23.342;2023-06-01T07:37:33;9.13;;;3.77;;
3253;SDS011;1639;42.804;23.342;2023-06-01T07:39:58;5.57;;;2.50;;
3253;SDS011;1639;42.804;23.342;2023-06-01T07:42:24;7.20;;;3.20;;
3253;SDS011;1639;42.804;23.342;2023-06-01T07:44:49;6.03;;;3.13;;
3253;SDS011;1639;42.804;23.342;2023-06-01T07:47:15;6.43;;;3.30;;
3253;SDS011;1639;42.804;23.342;2023-06-01T07:49:41;11.13;;;4.53;;
3253;SDS011;1639;42.804;23.342;2023-06-01T07:52:07;11.33;;;3.40;;
3253;SDS011;1639;42.804;23.342;2023-06-01T07:54:35;6.53;;;3.50;;
3253;SDS011;1639;42.804;23.342;2023-06-01T07:57:02;6.97;;;3.47;;
3253;SDS011;1639;42.804;23.342;2023-06-01T07:59:29;5.77;;;2.90;;
3253;SDS011;1639;42.804;23.342;2023-06-01T08:01:55;7.77;;;3.70;;
3253;SDS011;1639;42.804;23.342;2023-06-01T08:04:21;12.80;;;4.07;;
3253;SDS011;1639;42.804;23.342;2023-06-01T08:06:47;6.63;;;2.67;;
3253;SDS011;1639;42.804;23.342;2023-06-01T08:09:14;13.20;;;3.60;;
3253;SDS011;1639;42.804;23.342;2023-06-01T08:11:40;6.87;;;2.53;;
3253;SDS011;1639;42.804;23.342;2023-06-01T08:14:05;8.00;;;3.60;;
3253;SDS011;1639;42.804;23.342;2023-06-01T08:16:34;9.67;;;3.77;;
3253;SDS011;1639;42.804;23.342;2023-06-01T08:19:00;10.43;;;4.10;;
3253;SDS011;1639;42.804;23.342;2023-06-01T08:21:26;9.53;;;4.40;;
3253;SDS011;1639;42.804;23.342;2023-06-01T08:23:54;7.60;;;4.13;;
3253;SDS011;1639;42.804;23.342;2023-06-01T08:26:20;7.60;;;3.77;;
3253;SDS011;1639;42.804;23.342;2023-06-01T08:28:46;8.67;;;4.43;;
3253;SDS011;1639;42.804;23.342;2023-06-01T08:31:20;7.60;;;3.27;;
3253;SDS011;1639;42.804;23.342;2023-06-01T08:33:46;7.10;;;2.80;;
3253;SDS011;1639;42.804;23.342;2023-06-01T08:36:12;8.63;;;3.67;;
3253;SDS011;1639;42.804;23.342;2023-06-01T08:38:38;7.40;;;3.40;;
3253;SDS011;1639;42.804;23.342;2023-06-01T08:41:08;6.13;;;3.37;;
3253;SDS011;1639;42.804;23.342;2023-06-01T08:43:40;12.73;;;3.90;;
3253;SDS011;1639;42.804;23.342;2023-06-01T08:46:06;6.53;;;3.10;;
3253;SDS011;1639;42.804;23.342;2023-06-01T08:48:31;8.20;;;4.53;;
3253;SDS011;1639;42.804;23.342;2023-06-01T08:50:58;9.70;;;3.87;;
3253;SDS011;1639;42.804;23.342;2023-06-01T08:53:25;13.73;;;5.13;;
3253;SDS011;1639;42.804;23.342;2023-06-01T08:55:53;8.63;;;3.97;;
3253;SDS011;1639;42.804;23.342;2023-06-01T08:58:21;7.90;;;4.10;;
3253;SDS011;1639;42.804;23.342;2023-06-01T09:00:50;7.33;;;3.10;;
3253;SDS011;1639;42.804;23.342;2023-06-01T09:03:18;10.83;;;4.63;;
3253;SDS011;1639;42.804;23.342;2023-06-01T09:05:44;18.33;;;3.83;;
3253;SDS011;1639;42.804;23.342;2023-06-01T09:08:10;6.70;;;2.90;;
3253;SDS011;1639;42.804;23.342;2023-06-01T09:10:35;12.43;;;4.63;;
3253;SDS011;1639;42.804;23.342;2023-06-01T09:13:01;8.03;;;3.50;;
3253;SDS011;1639;42.804;23.342;2023-06-01T09:15:28;8.60;;;3.30;;
3253;SDS011;1639;42.804;23.342;2023-06-01T09:18:03;10.30;;;3.20;;
3253;SDS011;1639;42.804;23.342;2023-06-01T09:20:32;5.73;;;3.23;;
3253;SDS011;1639;42.804;23.342;2023-06-01T09:22:58;9.27;;;3.27;;
3253;SDS011;1639;42.804;23.342;2023-06-01T09:25:30;10.40;;;4.40;;
3253;SDS011;1639;42.804;23.342;2023-06-01T09:27:57;7.67;;;3.70;;
3253;SDS011;1639;42.804;23.342;2023-06-01T09:30:25;8.60;;;3.93;;
3253;SDS011;1639;42.804;23.342;2023-06-01T09:33:10;6.67;;;3.70;;
3253;SDS011;1639;42.804;23.342;2023-06-01T09:35:44;5.07;;;2.60;;
3253;SDS011;1639;42.804;23.342;2023-06-01T09:38:11;5.80;;;3.10;;
3253;SDS011;1639;42.804;23.342;2023-06-01T09:40:41;5.83;;;2.80;;
3253;SDS011;1639;42.804;23.342;2023-06-01T09:43:21;5.93;;;2.60;;
3253;SDS011;1639;42.804;23.342;2023-06-01T09:46:20;5.70;;;2.60;;
3253;SDS011;1639;42.804;23.342;2023-06-01T09:48:39;8.07;;;3.13;;
3253;SDS011;1639;42.804;23.342;2023-06-01T09:51:05;5.50;;;2.50;;
3253;SDS011;1639;42.804;23.342;2023-06-01T09:53:47;7.17;;;3.13;;
3253;SDS011;1639;42.804;23.342;2023-06-01T09:56:12;5.57;;;2.80;;
3253;SDS011;1639;42.804;23.342;2023-06-01T09:58:37;8.00;;;2.90;;
3253;SDS011;1639;42.804;23.342;2023-06-01T10:01:05;9.20;;;3.23;;
3253;SDS011;1639;42.804;23.342;2023-06-01T10:03:33;9.63;;;3.13;;
3253;SDS011;1639;42.804;23.342;2023-06-01T10:06:02;5.30;;;3.00;;
3253;SDS011;1639;42.804;23.342;2023-06-01T10:08:28;10.13;;;3.87;;
3253;SDS011;1639;42.804;23.342;2023-06-01T10:10:55;5.77;;;3.70;;
3253;SDS011;1639;42.804;23.342;2023-06-01T10:13:21;6.67;;;3.50;;
3253;SDS011;1639;42.804;23.342;2023-06-01T10:15:47;5.30;;;2.80;;
3253;SDS011;1639;42.804;23.342;2023-06-01T10:18:12;7.57;;;3.30;;
3253;SDS011;1639;42.804;23.342;2023-06-01T10:20:40;5.70;;;3.00;;
3253;SDS011;1639;42.804;23.342;2023-06-01T10:23:05;8.83;;;3.00;;
3253;SDS011;1639;42.804;23.342;2023-06-01T10:25:33;5.83;;;2.80;;
3253;SDS011;1639;42.804;23.342;2023-06-01T10:28:04;7.47;;;3.20;;
3253;SDS011;1639;42.804;23.342;2023-06-01T10:30:35;5.50;;;2.17;;
3253;SDS011;1639;42.804;23.342;2023-06-01T10:33:00;5.60;;;2.43;;
3253;SDS011;1639;42.804;23.342;2023-06-01T10:40:34;7.57;;;2.80;;
3253;SDS011;1639;42.804;23.342;2023-06-01T10:43:00;6.07;;;2.87;;
3253;SDS011;1639;42.804;23.342;2023-06-01T10:48:10;6.90;;;3.00;;
3253;SDS011;1639;42.804;23.342;2023-06-01T10:50:41;6.63;;;2.90;;
3253;SDS011;1639;42.804;23.342;2023-06-01T10:53:23;5.70;;;2.70;;
3253;SDS011;1639;42.804;23.342;2023-06-01T10:58:41;4.80;;;2.37;;
3253;SDS011;1639;42.804;23.342;2023-06-01T11:01:07;6.27;;;2.93;;
3253;SDS011;1639;42.804;23.342;2023-06-01T11:03:44;5.07;;;2.50;;
3253;SDS011;1639;42.804;23.342;2023-06-01T11:06:23;9.33;;;3.30;;
3253;SDS011;1639;42.804;23.342;2023-06-01T11:08:54;5.10;;;2.40;;
3253;SDS011;1639;42.804;23.342;2023-06-01T11:11:36;5.40;;;2.80;;
3253;SDS011;1639;42.804;23.342;2023-06-01T11:14:23;7.67;;;2.60;;
3253;SDS011;1639;42.804;23.342;2023-06-01T11:16:51;5.30;;;2.70;;
3253;SDS011;1639;42.804;23.342;2023-06-01T11:19:23;5.97;;;2.70;;
3253;SDS011;1639;42.804;23.342;2023-06-01T11:21:56;5.10;;;2.30;;
3253;SDS011;1639;42.804;23.342;2023-06-01T11:24:33;6.87;;;2.67;;
3253;SDS011;1639;42.804;23.342;2023-06-01T11:27:04;10.20;;;3.70;;
3253;SDS011;1639;42.804;23.342;2023-06-01T11:29:32;7.90;;;3.17;;
3253;SDS011;1639;42.804;23.342;2023-06-01T11:31:58;4.73;;;2.27;;
3253;SDS011;1639;42.804;23.342;2023-06-01T11:34:32;6.23;;;2.60;;
3253;SDS011;1639;42.804;23.342;2023-06-01T11:37:03;5.70;;;2.57;;
3253;SDS011;1639;42.804;23.342;2023-06-01T11:39:29;7.90;;;2.70;;
3253;SDS011;1639;42.804;23.342;2023-06-01T11:42:04;5.63;;;2.87;;
3253;SDS011;1639;42.804;23.342;2023-06-01T11:44:35;5.80;;;2.67;;
3253;SDS011;1639;42.804;23.342;2023-06-01T11:47:02;5.10;;;2.33;;
3253;SDS011;1639;42.804;23.342;2023-06-01T11:49:31;5.67;;;2.37;;
3253;SDS011;1639;42.804;23.342;2023-06-01T11:52:07;9.70;;;3.90;;
3253;SDS011;1639;42.804;23.342;2023-06-01T11:54:33;5.10;;;2.93;;
3253;SDS011;1639;42.804;23.342;2023-06-01T11:56:59;7.33;;;2.80;;
3253;SDS011;1639;42.804;23.342;2023-06-01T11:59:30;6.30;;;2.70;;
3253;SDS011;1639;42.804;23.342;2023-06-01T12:02:24;6.83;;;3.10;;
3253;SDS011;1639;42.804;23.342;2023-06-01T12:05:01;6.60;;;2.80;;
3253;SDS011;1639;42.804;23.342;2023-06-01T12:07:31;5.60;;;2.60;;
3253;SDS011;1639;42.804;23.342;2023-06-01T12:10:08;6.20;;;2.90;;
3253;SDS011;1639;42.804;23.342;2023-06-01T12:12:35;6.70;;;2.60;;
3253;SDS011;1639;42.804;23.342;2023-06-01T12:15:02;6.00;;;2.20;;
3253;SDS011;1639;42.804;23.342;2023-06-01T12:17:45;4.90;;;2.07;;
3253;SDS011;1639;42.804;23.342;2023-06-01T12:20:25;5.23;;;2.17;;
3253;SDS011;1639;42.804;23.342;2023-06-01T12:23:12;5.50;;;2.33;;
3253;SDS011;1639;42.804;23.342;2023-06-01T12:25:53;6.13;;;1.87;;
3253;SDS011;1639;42.804;23.342;2023-06-01T12:28:20;4.77;;;2.00;;
3253;SDS011;1639;42.804;23.342;2023-06-01T12:30:46;4.70;;;2.03;;
3253;SDS011;1639;42.804;23.342;2023-06-01T12:33:31;6.07;;;2.87;;
3253;SDS011;1639;42.804;23.342;2023-06-01T12:36:03;8.87;;;3.50;;
3253;SDS011;1639;42.804;23.342;2023-06-01T12:39:13;5.80;;;2.30;;
3253;SDS011;1639;42.804;23.342;2023-06-01T12:41:19;6.20;;;2.60;;
3253;SDS011;1639;42.804;23.342;2023-06-01T12:43:49;5.37;;;2.33;;
3253;SDS011;1639;42.804;23.342;2023-06-01T12:46:22;6.10;;;2.80;;
3253;SDS011;1639;42.804;23.342;2023-06-01T12:51:43;4.60;;;1.77;;
3253;SDS011;1639;42.804;23.342;2023-06-01T12:54:09;5.70;;;2.60;;
3253;SDS011;1639;42.804;23.342;2023-06-01T12:56:34;4.90;;;2.00;;
3253;SDS011;1639;42.804;23.342;2023-06-01T12:59:00;6.20;;;2.73;;
3253;SDS011;1639;42.804;23.342;2023-06-01T13:01:25;5.97;;;2.50;;
3253;SDS011;1639;42.804;23.342;2023-06-01T13:03:51;6.00;;;3.03;;
3253;SDS011;1639;42.804;23.342;2023-06-01T13:06:18;4.43;;;1.70;;
3253;SDS011;1639;42.804;23.342;2023-06-01T13:08:43;5.47;;;1.90;;
3253;SDS011;1639;42.804;23.342;2023-06-01T13:11:08;4.60;;;1.83;;
3253;SDS011;1639;42.804;23.342;2023-06-01T13:13:34;5.83;;;2.23;;
3253;SDS011;1639;42.804;23.342;2023-06-01T13:16:00;8.00;;;2.57;;
3253;SDS011;1639;42.804;23.342;2023-06-01T13:18:27;5.50;;;2.37;;
3253;SDS011;1639;42.804;23.342;2023-06-01T13:20:52;5.90;;;2.30;;
3253;SDS011;1639;42.804;23.342;2023-06-01T13:23:18;4.80;;;2.60;;
3253;SDS011;1639;42.804;23.342;2023-06-01T13:25:43;5.60;;;2.13;;
3253;SDS011;1639;42.804;23.342;2023-06-01T13:28:09;4.90;;;1.93;;
3253;SDS011;1639;42.804;23.342;2023-06-01T13:30:35;5.73;;;2.10;;
3253;SDS011;1639;42.804;23.342;2023-06-01T13:33:00;6.17;;;2.00;;
3253;SDS011;1639;42.804;23.342;2023-06-01T13:35:26;6.20;;;2.67;;
3253;SDS011;1639;42.804;23.342;2023-06-01T13:37:52;5.00;;;2.20;;
3253;SDS011;1639;42.804;23.342;2023-06-01T13:40:18;4.90;;;2.10;;
3253;SDS011;1639;42.804;23.342;2023-06-01T13:42:46;7.10;;;2.60;;
3253;SDS011;1639;42.804;23.342;2023-06-01T13:45:12;4.70;;;1.90;;
3253;SDS011;1639;42.804;23.342;2023-06-01T13:47:37;4.90;;;2.13;;
3253;SDS011;1639;42.804;23.342;2023-06-01T13:50:03;5.07;;;2.07;;
3253;SDS011;1639;42.804;23.342;2023-06-01T13:52:29;7.43;;;2.87;;
3253;SDS011;1639;42.804;23.342;2023-06-01T13:54:55;6.73;;;1.70;;
3253;SDS011;1639;42.804;23.342;2023-06-01T13:57:20;5.50;;;2.00;;
3253;SDS011;1639;42.804;23.342;2023-06-01T13:59:47;6.57;;;2.53;;
3253;SDS011;1639;42.804;23.342;2023-06-01T14:02:12;7.20;;;2.73;;
3253;SDS011;1639;42.804;23.342;2023-06-01T14:04:38;6.80;;;2.57;;
3253;SDS011;1639;42.804;23.342;2023-06-01T14:07:04;5.73;;;2.73;;
3253;SDS011;1639;42.804;23.342;2023-06-01T14:09:29;5.13;;;1.77;;
3253;SDS011;1639;42.804;23.342;2023-06-01T14:11:55;4.70;;;1.60;;
3253;SDS011;1639;42.804;23.342;2023-06-01T14:14:20;5.10;;;2.00;;
3253;SDS011;1639;42.804;23.342;2023-06-01T14:16:45;6.60;;;1.80;;
3253;SDS011;1639;42.804;23.342;2023-06-01T14:19:11;4.80;;;1.77;;
3253;SDS011;1639;42.804;23.342;2023-06-01T14:21:36;5.03;;;2.30;;
3253;SDS011;1639;42.804;23.342;2023-06-01T14:24:03;4.73;;;2.10;;
3253;SDS011;1639;42.804;23.342;2023-06-01T14:26:29;8.23;;;2.80;;
3253;SDS011;1639;42.804;23.342;2023-06-01T14:28:54;8.20;;;2.33;;
3253;SDS011;1639;42.804;23.342;2023-06-01T14:31:20;4.77;;;1.93;;
3253;SDS011;1639;42.804;23.342;2023-06-01T14:33:46;5.30;;;2.50;;
3253;SDS011;1639;42.804;23.342;2023-06-01T14:36:11;5.67;;;2.87;;
3253;SDS011;1639;42.804;23.342;2023-06-01T14:38:37;5.47;;;2.53;;
3253;SDS011;1639;42.804;23.342;2023-06-01T14:41:02;5.53;;;2.20;;
3253;SDS011;1639;42.804;23.342;2023-06-01T14:43:28;4.87;;;1.93;;
3253;SDS011;1639;42.804;23.342;2023-06-01T14:45:55;4.53;;;1.70;;
3253;SDS011;1639;42.804;23.342;2023-06-01T14:48:20;4.67;;;1.90;;
3253;SDS011;1639;42.804;23.342;2023-06-01T14:50:46;5.90;;;2.07;;
3253;SDS011;1639;42.804;23.342;2023-06-01T14:53:11;5.80;;;2.60;;
3253;SDS011;1639;42.804;23.342;2023-06-01T14:55:37;4.97;;;1.97;;
3253;SDS011;1639;42.804;23.342;2023-06-01T14:58:05;6.40;;;1.87;;
3253;SDS011;1639;42.804;23.342;2023-06-01T15:00:30;6.10;;;3.03;;
3253;SDS011;1639;42.804;23.342;2023-06-01T15:02:56;6.30;;;2.63;;
3253;SDS011;1639;42.804;23.342;2023-06-01T15:05:21;6.33;;;3.17;;
3253;SDS011;1639;42.804;23.342;2023-06-01T15:07:46;5.13;;;2.30;;
3253;SDS011;1639;42.804;23.342;2023-06-01T15:10:12;5.10;;;2.10;;
3253;SDS011;1639;42.804;23.342;2023-06-01T15:12:37;4.80;;;2.00;;
3253;SDS011;1639;42.804;23.342;2023-06-01T15:15:03;5.13;;;2.30;;
3253;SDS011;1639;42.804;23.342;2023-06-01T15:17:29;5.80;;;2.37;;
3253;SDS011;1639;42.804;23.342;2023-06-01T15:19:54;4.70;;;1.90;;
3253;SDS011;1639;42.804;23.342;2023-06-01T15:22:19;7.10;;;2.57;;
3253;SDS011;1639;42.804;23.342;2023-06-01T15:24:45;5.37;;;2.23;;
3253;SDS011;1639;42.804;23.342;2023-06-01T15:27:10;4.53;;;1.87;;
3253;SDS011;1639;42.804;23.342;2023-06-01T15:29:36;8.30;;;3.10;;
3253;SDS011;1639;42.804;23.342;2023-06-01T15:32:01;7.63;;;2.23;;
3253;SDS011;1639;42.804;23.342;2023-06-01T15:34:27;5.10;;;2.13;;
3253;SDS011;1639;42.804;23.342;2023-06-01T15:36:52;7.97;;;2.50;;
3253;SDS011;1639;42.804;23.342;2023-06-01T15:39:18;6.77;;;2.70;;
3253;SDS011;1639;42.804;23.342;2023-06-01T15:41:43;4.90;;;1.67;;